Time;durP1;ratioP1;P1;durP2;ratioP2;P2;SDS_P1;SDS_P2;PMS_P1;PMS_P2;Temp;Humidity;BMP_temperature;BMP_pressure;BME280_temperature;BME280_humidity;BME280_pressure;Samples;Min_cycle;Max_cycle;Signal;HPM_P1;HPM_P2
2021/03/08 00:00:54;;;;;;;18.13;10.95;;;3.20;98.40;;;;;;5000904;28;20603;-73
2021/03/08 00:03:20;;;;;;;19.52;10.55;;;3.20;98.60;;;;;;5011853;28;20025;-73
2021/03/08 00:05:45;;;;;;;17.73;10.20;;;3.20;98.50;;;;;;5005434;28;20064;-73
2021/03/08 00:08:12;;;;;;;18.27;10.02;;;3.20;98.40;;;;;;5004704;28;20440;-73
2021/03/08 00:10:39;;;;;;;16.95;11.13;;;3.20;98.50;;;;;;5006342;28;20076;-73
2021/03/08 00:13:05;;;;;;;18.02;11.20;;;3.10;98.80;;;;;;5003408;28;20026;-72
2021/03/08 00:15:31;;;;;;;20.42;10.55;;;3.10;98.90;;;;;;5005156;28;20038;-73
2021/03/08 00:17:57;;;;;;;20.08;10.63;;;3.10;99.00;;;;;;5004159;28;20115;-73
2021/03/08 00:20:26;;;;;;;16.15;9.65;;;2.90;99.40;;;;;;5004050;28;20049;-73
2021/03/08 00:22:53;;;;;;;19.17;10.65;;;3.00;99.20;;;;;;5002707;28;20112;-73
2021/03/08 00:25:27;;;;;;;16.42;9.30;;;3.10;99.10;;;;;;5006527;28;20040;-73
2021/03/08 00:27:53;;;;;;;24.45;11.13;;;3.10;99.00;;;;;;5007159;28;20080;-73
2021/03/08 00:30:19;;;;;;;17.33;11.13;;;3.10;99.00;;;;;;5004704;28;20025;-74
2021/03/08 00:32:45;;;;;;;17.60;9.57;;;3.10;99.30;;;;;;5003001;28;20034;-73
2021/03/08 00:35:12;;;;;;;20.58;11.88;;;3.00;99.40;;;;;;5002710;28;20467;-73
2021/03/08 00:37:38;;;;;;;17.65;10.65;;;2.90;99.50;;;;;;5009050;28;20484;-73
2021/03/08 00:40:15;;;;;;;21.77;10.55;;;3.00;99.50;;;;;;5003629;28;20037;-73
2021/03/08 00:42:41;;;;;;;16.50;10.10;;;3.10;99.20;;;;;;5000885;28;20763;-73
2021/03/08 00:45:11;;;;;;;18.13;10.10;;;3.00;99.30;;;;;;5002752;28;21067;-73
2021/03/08 00:47:37;;;;;;;20.30;10.50;;;3.10;99.30;;;;;;5001354;28;20037;-72
2021/03/08 00:50:09;;;;;;;19.08;11.80;;;3.00;99.40;;;;;;5006159;28;20037;-74
2021/03/08 00:52:35;;;;;;;18.25;10.35;;;3.00;99.60;;;;;;5003714;28;20036;-73
2021/03/08 00:55:00;;;;;;;19.27;10.82;;;3.00;99.70;;;;;;5007660;28;20037;-73
2021/03/08 00:57:26;;;;;;;18.63;9.73;;;3.10;99.50;;;;;;5004477;28;20037;-73
2021/03/08 00:59:52;;;;;;;18.55;10.68;;;3.20;99.20;;;;;;5005872;28;21533;-73
2021/03/08 01:02:18;;;;;;;19.77;11.55;;;3.20;99.20;;;;;;5001121;28;20472;-73
2021/03/08 01:04:43;;;;;;;18.95;10.73;;;3.20;99.10;;;;;;5006882;28;21015;-74
2021/03/08 01:07:09;;;;;;;18.63;10.45;;;3.10;99.20;;;;;;5000964;28;20075;-74
2021/03/08 01:09:35;;;;;;;18.35;11.32;;;3.00;99.40;;;;;;5002122;28;20108;-73
2021/03/08 01:12:01;;;;;;;17.35;9.65;;;3.00;99.40;;;;;;5006354;28;20092;-73
2021/03/08 01:14:26;;;;;;;18.30;10.88;;;3.00;99.50;;;;;;5009461;28;20121;-73
2021/03/08 01:16:52;;;;;;;17.17;10.55;;;3.00;99.50;;;;;;5002949;28;20113;-73
2021/03/08 01:19:18;;;;;;;18.67;10.80;;;3.00;99.60;;;;;;5004248;28;20400;-74
2021/03/08 01:21:43;;;;;;;19.77;10.98;;;2.90;99.70;;;;;;5013882;28;20021;-73
2021/03/08 01:24:10;;;;;;;19.27;11.30;;;3.00;99.60;;;;;;5001399;28;20030;-73
2021/03/08 01:26:36;;;;;;;20.02;11.68;;;2.90;99.60;;;;;;5008312;28;20506;-73
2021/03/08 01:29:03;;;;;;;18.80;11.38;;;2.90;99.70;;;;;;5001530;28;20045;-73
2021/03/08 01:31:28;;;;;;;18.27;10.70;;;2.80;99.90;;;;;;5003118;28;20408;-73
2021/03/08 01:33:54;;;;;;;17.27;10.48;;;2.90;99.90;;;;;;5009786;28;20026;-73
2021/03/08 01:36:20;;;;;;;20.17;11.73;;;2.90;99.90;;;;;;5014218;28;20520;-72
2021/03/08 01:38:46;;;;;;;21.00;12.10;;;3.00;99.70;;;;;;5011528;28;20061;-73
2021/03/08 01:41:12;;;;;;;19.13;10.40;;;2.90;99.70;;;;;;5010990;28;20147;-73
2021/03/08 01:43:38;;;;;;;20.20;10.50;;;2.90;99.70;;;;;;5002116;28;20037;-73
2021/03/08 01:46:04;;;;;;;20.17;12.05;;;2.80;99.90;;;;;;5006898;28;20032;-73
2021/03/08 01:48:30;;;;;;;17.98;10.85;;;2.90;99.90;;;;;;5005588;28;20033;-73
2021/03/08 01:50:55;;;;;;;21.20;11.60;;;2.90;99.80;;;;;;5002317;28;20029;-73
2021/03/08 01:53:23;;;;;;;26.25;12.43;;;3.10;99.60;;;;;;5012073;28;20029;-72
2021/03/08 01:55:49;;;;;;;20.05;11.05;;;3.00;99.90;;;;;;5022436;28;20022;-73
2021/03/08 01:58:15;;;;;;;23.33;12.23;;;2.90;99.70;;;;;;5022222;28;20472;-72
2021/03/08 02:00:41;;;;;;;21.05;11.32;;;2.70;99.90;;;;;;5003456;28;20034;-72
2021/03/08 02:03:07;;;;;;;19.85;10.43;;;2.60;99.90;;;;;;5002420;28;20144;-73
2021/03/08 02:05:39;;;;;;;19.70;12.35;;;2.60;99.90;;;;;;5001258;28;21592;-72
2021/03/08 02:08:08;;;;;;;18.75;11.00;;;2.70;99.90;;;;;;5003117;28;20047;-73
2021/03/08 02:10:40;;;;;;;19.73;11.65;;;2.70;99.90;;;;;;5000633;28;20037;-73
2021/03/08 02:13:23;;;;;;;16.65;10.40;;;2.60;99.90;;;;;;5002232;28;20034;-73
2021/03/08 02:15:54;;;;;;;21.27;10.80;;;2.60;99.90;;;;;;5001518;28;20037;-73
2021/03/08 02:18:53;;;;;;;20.52;12.00;;;2.70;99.90;;;;;;5003408;28;20036;-73
2021/03/08 02:22:13;;;;;;;21.17;11.18;;;3.00;99.80;;;;;;5001729;28;20049;-73
2021/03/08 02:25:09;;;;;;;19.55;11.55;;;3.00;99.70;;;;;;4992738;28;20389;-73
2021/03/08 02:28:11;;;;;;;17.95;10.95;;;3.00;99.80;;;;;;5000460;28;20053;-73
2021/03/08 02:30:45;;;;;;;17.83;10.25;;;3.10;99.80;;;;;;5003490;28;20043;-73
2021/03/08 02:33:16;;;;;;;21.60;11.98;;;3.10;99.70;;;;;;5002827;28;20069;-73
2021/03/08 02:35:45;;;;;;;18.67;11.35;;;3.00;99.90;;;;;;5004649;28;20073;-74
2021/03/08 02:38:17;;;;;;;21.88;12.45;;;3.20;99.70;;;;;;5000389;28;20037;-74
2021/03/08 02:40:46;;;;;;;25.67;12.40;;;3.30;99.40;;;;;;5003447;28;20440;-73
2021/03/08 02:43:20;;;;;;;19.05;12.10;;;3.20;99.20;;;;;;5000057;28;20045;-74
2021/03/08 02:45:49;;;;;;;19.40;11.55;;;3.20;99.40;;;;;;5002344;28;20102;-72
2021/03/08 02:48:16;;;;;;;22.20;12.95;;;3.00;99.80;;;;;;5001666;28;20590;-73
2021/03/08 02:50:44;;;;;;;24.50;12.32;;;3.10;99.80;;;;;;5000819;28;20038;-74
2021/03/08 02:53:15;;;;;;;23.20;12.10;;;3.20;99.70;;;;;;5001789;28;20079;-73
2021/03/08 02:55:46;;;;;;;18.55;10.55;;;3.20;99.40;;;;;;5003496;28;20463;-73
2021/03/08 02:58:13;;;;;;;20.88;11.57;;;3.20;99.20;;;;;;5005231;28;20480;-73
2021/03/08 03:00:39;;;;;;;22.05;13.45;;;3.20;99.30;;;;;;5003970;28;20038;-73
2021/03/08 03:03:08;;;;;;;19.85;11.88;;;3.20;99.50;;;;;;5001672;28;20065;-73
2021/03/08 03:05:37;;;;;;;19.60;11.48;;;3.10;99.80;;;;;;5005849;28;20472;-73
2021/03/08 03:08:04;;;;;;;25.95;12.65;;;3.00;99.90;;;;;;5002798;28;20060;-73
2021/03/08 03:10:32;;;;;;;22.02;11.98;;;2.90;99.90;;;;;;5001410;28;20177;-73
2021/03/08 03:13:00;;;;;;;20.92;10.55;;;2.80;99.90;;;;;;5004729;28;20026;-73
2021/03/08 03:15:26;;;;;;;22.92;12.77;;;2.50;99.90;;;;;;5000936;28;20116;-73
2021/03/08 03:17:54;;;;;;;19.05;10.80;;;2.50;99.90;;;;;;5003513;28;20034;-73
2021/03/08 03:20:21;;;;;;;21.40;11.32;;;2.50;99.90;;;;;;5001819;28;20045;-73
2021/03/08 03:22:49;;;;;;;18.15;10.77;;;2.50;99.90;;;;;;5005412;28;20145;-73
2021/03/08 03:25:23;;;;;;;23.83;11.23;;;2.40;99.90;;;;;;5001775;28;20156;-72
2021/03/08 03:27:50;;;;;;;23.42;12.18;;;2.40;99.90;;;;;;5004215;28;21805;-74
2021/03/08 03:30:24;;;;;;;19.63;10.98;;;2.40;99.90;;;;;;5011968;28;20139;-73
2021/03/08 03:32:51;;;;;;;23.60;12.50;;;2.20;99.90;;;;;;5005457;28;20488;-73
2021/03/08 03:35:19;;;;;;;25.80;11.88;;;2.30;99.90;;;;;;5001435;28;20057;-73
2021/03/08 03:37:46;;;;;;;22.00;12.95;;;2.30;99.90;;;;;;5002335;28;20035;-73
2021/03/08 03:40:14;;;;;;;25.15;12.48;;;2.20;99.90;;;;;;5010151;28;20498;-72
2021/03/08 03:42:44;;;;;;;21.35;12.27;;;2.20;99.90;;;;;;5003513;28;21679;-73
2021/03/08 03:45:11;;;;;;;21.42;11.30;;;2.10;99.90;;;;;;5003725;28;20044;-73
2021/03/08 03:47:41;;;;;;;22.92;12.60;;;2.10;99.90;;;;;;5003421;28;20570;-73
2021/03/08 03:50:19;;;;;;;22.67;11.68;;;2.10;99.90;;;;;;5009993;28;20025;-73
2021/03/08 03:52:45;;;;;;;18.65;11.88;;;2.20;99.90;;;;;;5003439;28;20099;-73
2021/03/08 03:55:14;;;;;;;19.75;11.23;;;2.10;99.90;;;;;;5005027;28;20029;-73
2021/03/08 03:57:54;;;;;;;23.42;11.80;;;1.80;99.90;;;;;;5004278;28;20042;-73
2021/03/08 04:00:24;;;;;;;20.67;12.35;;;1.90;99.90;;;;;;5007862;28;20124;-73
2021/03/08 04:03:01;;;;;;;22.05;13.10;;;2.10;99.90;;;;;;5000543;28;20041;-74
2021/03/08 04:05:27;;;;;;;20.90;12.50;;;2.20;99.90;;;;;;5002071;28;20033;-72
2021/03/08 04:07:55;;;;;;;20.48;11.95;;;2.20;99.90;;;;;;4996760;28;20036;-73
2021/03/08 04:10:22;;;;;;;24.15;13.98;;;2.10;99.90;;;;;;4996627;28;20037;-73
2021/03/08 04:12:53;;;;;;;22.13;13.15;;;1.90;99.90;;;;;;5001341;28;20033;-73
2021/03/08 04:15:21;;;;;;;22.75;12.30;;;1.90;99.90;;;;;;4996799;28;20022;-73
2021/03/08 04:17:48;;;;;;;26.98;13.73;;;1.90;99.90;;;;;;4999050;28;20146;-73
2021/03/08 04:20:17;;;;;;;25.58;14.45;;;2.00;99.90;;;;;;4994951;28;20038;-73
2021/03/08 04:22:50;;;;;;;22.52;12.52;;;2.00;99.90;;;;;;5001689;28;20065;-73
2021/03/08 04:25:18;;;;;;;23.63;13.23;;;1.70;99.90;;;;;;4996367;28;20088;-73
2021/03/08 04:27:49;;;;;;;26.75;12.93;;;1.80;99.90;;;;;;4997465;28;20133;-73
2021/03/08 04:30:15;;;;;;;22.35;13.40;;;1.90;99.90;;;;;;4997665;28;20030;-72
2021/03/08 04:32:44;;;;;;;23.38;13.35;;;1.80;99.90;;;;;;5003059;28;20101;-72
2021/03/08 04:35:11;;;;;;;23.17;13.38;;;1.80;99.90;;;;;;4997828;28;20033;-73
2021/03/08 04:37:40;;;;;;;23.83;12.60;;;1.60;99.90;;;;;;4994706;28;20044;-73
2021/03/08 04:40:08;;;;;;;26.65;12.85;;;1.60;99.90;;;;;;4995905;28;20034;-73
2021/03/08 04:42:35;;;;;;;23.30;13.75;;;1.60;99.90;;;;;;5002196;28;20033;-73
2021/03/08 04:45:01;;;;;;;24.15;13.27;;;1.60;99.90;;;;;;4997518;28;20092;-73
2021/03/08 04:47:27;;;;;;;22.98;14.13;;;1.70;99.90;;;;;;4995275;28;20030;-73
2021/03/08 04:49:53;;;;;;;23.67;13.05;;;1.80;99.90;;;;;;4999065;28;20823;-73
2021/03/08 04:52:21;;;;;;;22.00;13.57;;;1.80;99.90;;;;;;4997143;28;20041;-73
2021/03/08 04:54:47;;;;;;;24.58;14.00;;;1.70;99.90;;;;;;5001616;28;20037;-72
2021/03/08 04:57:17;;;;;;;20.75;13.43;;;1.70;99.90;;;;;;4995419;28;20046;-73
2021/03/08 04:59:43;;;;;;;25.88;14.68;;;1.70;99.90;;;;;;4998534;28;20361;-73
2021/03/08 05:02:12;;;;;;;23.27;13.82;;;1.70;99.90;;;;;;4997312;28;20596;-72
2021/03/08 05:04:38;;;;;;;18.95;12.18;;;1.80;99.90;;;;;;5000942;28;20045;-74
2021/03/08 05:07:08;;;;;;;24.05;13.40;;;1.90;99.90;;;;;;5001863;28;20655;-73
2021/03/08 05:09:35;;;;;;;24.63;14.10;;;2.10;99.90;;;;;;4995549;28;20122;-73
2021/03/08 05:12:04;;;;;;;21.85;12.60;;;2.20;99.90;;;;;;4995146;28;20026;-73
2021/03/08 05:14:32;;;;;;;23.73;14.77;;;2.20;99.90;;;;;;5002293;28;20111;-73
2021/03/08 05:17:00;;;;;;;22.67;12.38;;;2.00;99.90;;;;;;4995374;28;20030;-73
2021/03/08 05:19:26;;;;;;;26.08;13.50;;;1.90;99.90;;;;;;5000925;28;20072;-73
2021/03/08 05:21:53;;;;;;;23.95;12.43;;;1.80;99.90;;;;;;4995884;28;20560;-73
2021/03/08 05:24:20;;;;;;;24.27;13.07;;;1.80;99.90;;;;;;4994390;28;20034;-73
2021/03/08 05:26:46;;;;;;;21.85;12.40;;;1.80;99.90;;;;;;5007126;28;20048;-73
2021/03/08 05:29:13;;;;;;;23.83;13.95;;;1.70;99.90;;;;;;4996980;28;20377;-73
2021/03/08 05:31:43;;;;;;;24.40;12.77;;;1.70;99.90;;;;;;4995462;28;20026;-73
2021/03/08 05:34:12;;;;;;;24.58;13.82;;;1.50;99.90;;;;;;4997083;28;20038;-73
2021/03/08 05:36:47;;;;;;;21.35;11.98;;;1.50;99.90;;;;;;5002621;28;20026;-73
2021/03/08 05:39:15;;;;;;;25.35;13.23;;;1.50;99.90;;;;;;4996001;28;20050;-73
2021/03/08 05:41:55;;;;;;;21.55;11.68;;;1.60;99.90;;;;;;4998188;28;20048;-73
2021/03/08 05:44:25;;;;;;;20.50;11.88;;;1.60;99.90;;;;;;4994084;28;20886;-73
2021/03/08 05:46:53;;;;;;;18.58;11.45;;;1.80;99.90;;;;;;4998120;28;20029;-73
2021/03/08 05:49:48;;;;;;;21.52;12.32;;;1.90;99.90;;;;;;4995597;28;20022;-73
2021/03/08 05:52:51;;;;;;;20.55;11.43;;;1.50;99.90;;;;;;4996457;28;20792;-73
2021/03/08 05:55:33;;;;;;;18.40;11.38;;;1.50;99.90;;;;;;4998161;28;20037;-73
2021/03/08 05:58:14;;;;;;;21.13;12.13;;;1.70;99.90;;;;;;5001960;28;20038;-73
2021/03/08 06:00:47;;;;;;;21.02;12.32;;;1.70;99.90;;;;;;4996430;28;20056;-73
2021/03/08 06:03:24;;;;;;;20.40;12.00;;;1.80;99.90;;;;;;4995693;28;20060;-73
2021/03/08 06:05:59;;;;;;;17.52;11.50;;;1.80;99.90;;;;;;4997392;28;20044;-72
2021/03/08 06:08:40;;;;;;;19.13;10.80;;;1.50;99.90;;;;;;4996657;28;20044;-73
2021/03/08 06:11:12;;;;;;;20.35;11.85;;;1.70;99.90;;;;;;4995994;28;20053;-73
2021/03/08 06:13:54;;;;;;;20.25;11.23;;;1.80;99.90;;;;;;4998357;28;20029;-73
2021/03/08 06:16:33;;;;;;;19.73;10.52;;;1.80;99.90;;;;;;4995178;28;20034;-73
2021/03/08 06:19:01;;;;;;;22.75;12.23;;;1.70;99.90;;;;;;4995861;28;20135;-73
2021/03/08 06:21:27;;;;;;;20.88;11.52;;;1.70;99.90;;;;;;4995458;28;20114;-73
2021/03/08 06:23:54;;;;;;;20.58;11.05;;;1.80;99.90;;;;;;4994724;28;20109;-73
2021/03/08 06:26:21;;;;;;;23.30;11.88;;;1.70;99.90;;;;;;5003539;28;20034;-72
2021/03/08 06:28:47;;;;;;;21.13;11.93;;;1.70;99.90;;;;;;4996762;28;20109;-72
2021/03/08 06:31:14;;;;;;;21.80;11.77;;;1.70;99.90;;;;;;4997808;28;20029;-73
2021/03/08 06:33:40;;;;;;;21.65;12.13;;;1.70;99.90;;;;;;4995284;28;20025;-73
2021/03/08 06:36:07;;;;;;;21.73;12.40;;;1.70;99.90;;;;;;4993709;28;20151;-74
2021/03/08 06:38:33;;;;;;;22.42;12.18;;;1.60;99.90;;;;;;4995674;28;20112;-73
2021/03/08 06:40:59;;;;;;;20.05;10.70;;;1.90;99.90;;;;;;4993475;28;20038;-73
2021/03/08 06:43:29;;;;;;;19.27;12.18;;;1.90;99.90;;;;;;4999202;28;20049;-72
2021/03/08 06:45:56;;;;;;;22.08;11.95;;;1.90;99.90;;;;;;5002478;28;20033;-73
2021/03/08 06:48:22;;;;;;;23.08;11.15;;;1.80;99.90;;;;;;4994688;28;20040;-72
2021/03/08 06:51:07;;;;;;;20.23;11.20;;;1.90;99.90;;;;;;4996694;28;20087;-72
2021/03/08 06:53:33;;;;;;;21.63;12.23;;;1.90;99.90;;;;;;4997326;28;20036;-72
2021/03/08 06:56:20;;;;;;;26.65;13.32;;;2.00;99.90;;;;;;4997318;28;20033;-72
2021/03/08 06:59:02;;;;;;;19.45;10.85;;;1.90;99.90;;;;;;4998968;28;20063;-73
2021/03/08 07:01:32;;;;;;;19.05;10.80;;;2.00;99.90;;;;;;4998667;28;20041;-72
2021/03/08 07:04:00;;;;;;;19.33;11.75;;;2.10;99.90;;;;;;5002972;28;20039;-72
2021/03/08 07:06:27;;;;;;;22.42;12.32;;;2.20;99.90;;;;;;4998176;28;20432;-72
2021/03/08 07:09:07;;;;;;;22.73;13.13;;;2.30;99.90;;;;;;4998485;28;20041;-72
2021/03/08 07:11:33;;;;;;;24.00;13.35;;;2.30;99.90;;;;;;4998285;28;20045;-72
2021/03/08 07:13:59;;;;;;;18.05;11.20;;;2.20;99.90;;;;;;5007044;28;20117;-72
2021/03/08 07:16:36;;;;;;;19.65;11.93;;;2.20;99.90;;;;;;5000229;28;20033;-72
2021/03/08 07:19:02;;;;;;;19.55;11.18;;;2.10;99.90;;;;;;4998889;28;20614;-72
2021/03/08 07:21:28;;;;;;;18.10;11.73;;;2.10;99.90;;;;;;4998319;28;20549;-72
2021/03/08 07:24:11;;;;;;;19.73;11.73;;;2.20;99.90;;;;;;4997246;28;20030;-72
2021/03/08 07:26:46;;;;;;;20.38;11.02;;;2.20;99.90;;;;;;5006662;28;20639;-72
2021/03/08 07:29:14;;;;;;;22.02;12.13;;;2.40;99.90;;;;;;4999142;28;20044;-72
2021/03/08 07:31:43;;;;;;;17.85;11.20;;;2.30;99.90;;;;;;5000726;28;20424;-72
2021/03/08 07:34:09;;;;;;;19.17;12.15;;;2.40;99.90;;;;;;4999326;28;20488;-72
2021/03/08 07:36:40;;;;;;;21.33;13.02;;;2.50;99.90;;;;;;5001418;28;20091;-72
2021/03/08 07:39:25;;;;;;;22.90;11.57;;;2.50;99.90;;;;;;4996876;28;20077;-72
2021/03/08 07:41:54;;;;;;;16.75;10.43;;;2.60;99.90;;;;;;4998462;28;20037;-72
2021/03/08 07:44:21;;;;;;;25.45;11.77;;;2.70;99.90;;;;;;4997922;28;20037;-72
2021/03/08 07:46:47;;;;;;;23.70;12.75;;;2.80;99.90;;;;;;4998062;28;20516;-72
2021/03/08 07:49:13;;;;;;;21.65;12.77;;;2.80;99.90;;;;;;5000801;28;20037;-72
2021/03/08 07:52:01;;;;;;;22.60;12.35;;;2.80;99.90;;;;;;5002519;28;20121;-72
2021/03/08 07:54:26;;;;;;;22.42;11.60;;;2.80;99.90;;;;;;5000878;28;20068;-72
2021/03/08 07:56:54;;;;;;;19.52;11.45;;;2.80;99.90;;;;;;4998060;28;20104;-72
2021/03/08 07:59:20;;;;;;;24.08;12.60;;;2.80;99.90;;;;;;4997712;28;20650;-72
2021/03/08 08:01:48;;;;;;;20.40;12.15;;;2.90;99.90;;;;;;5005063;28;20060;-71
2021/03/08 08:04:13;;;;;;;20.42;12.35;;;2.90;99.90;;;;;;5017505;28;20037;-72
2021/03/08 08:06:40;;;;;;;19.77;11.52;;;2.90;99.90;;;;;;5001412;28;20038;-72
2021/03/08 08:09:07;;;;;;;23.42;12.52;;;3.00;99.90;;;;;;5001841;28;20690;-72
2021/03/08 08:11:33;;;;;;;19.73;10.82;;;3.00;99.90;;;;;;4998155;28;20037;-72
2021/03/08 08:14:00;;;;;;;19.27;11.38;;;3.10;99.90;;;;;;4997694;28;20412;-72
2021/03/08 08:16:30;;;;;;;19.90;11.52;;;3.00;99.90;;;;;;4997240;28;20033;-72
2021/03/08 08:19:10;;;;;;;20.48;11.88;;;3.00;99.90;;;;;;4997430;28;20038;-72
2021/03/08 08:21:42;;;;;;;20.90;12.07;;;3.00;99.90;;;;;;4999732;28;20037;-72
2021/03/08 08:24:18;;;;;;;20.45;12.15;;;3.00;99.90;;;;;;5000801;28;20022;-72
2021/03/08 08:26:44;;;;;;;19.27;11.80;;;3.10;99.90;;;;;;4997179;28;20030;-72
2021/03/08 08:29:11;;;;;;;22.65;11.32;;;3.10;99.90;;;;;;4999401;28;20032;-72
2021/03/08 08:31:56;;;;;;;19.95;11.32;;;3.20;99.90;;;;;;5003501;28;20116;-72
2021/03/08 08:34:32;;;;;;;20.80;11.02;;;3.30;99.90;;;;;;4996126;28;20057;-72
2021/03/08 08:37:08;;;;;;;18.92;11.35;;;3.40;99.90;;;;;;4996654;28;20373;-72
2021/03/08 08:39:34;;;;;;;21.45;11.27;;;3.40;99.90;;;;;;5000769;28;20108;-72
2021/03/08 08:42:18;;;;;;;20.80;11.35;;;3.60;99.90;;;;;;5014668;28;20480;-72
2021/03/08 08:44:51;;;;;;;20.27;12.07;;;3.70;99.90;;;;;;4996167;28;20034;-73
2021/03/08 08:47:31;;;;;;;18.52;11.25;;;3.70;99.90;;;;;;4996566;28;20037;-73
2021/03/08 08:50:08;;;;;;;22.60;12.10;;;3.80;99.90;;;;;;4995385;28;20041;-73
2021/03/08 08:52:44;;;;;;;18.77;11.40;;;3.80;99.90;;;;;;4999496;28;20061;-73
2021/03/08 08:55:11;;;;;;;20.75;12.25;;;3.90;99.90;;;;;;4997166;28;20041;-73
2021/03/08 08:57:37;;;;;;;20.98;11.40;;;4.00;99.90;;;;;;4995753;28;20037;-73
2021/03/08 09:00:24;;;;;;;25.35;11.65;;;4.00;99.90;;;;;;4998847;28;20038;-72
2021/03/08 09:02:50;;;;;;;19.77;11.57;;;4.10;99.90;;;;;;4997259;28;20865;-73
2021/03/08 09:05:28;;;;;;;22.70;12.40;;;4.10;99.90;;;;;;4998386;28;20037;-73
2021/03/08 09:08:18;;;;;;;19.58;11.43;;;4.20;99.90;;;;;;4996587;28;20030;-73
2021/03/08 09:10:44;;;;;;;24.13;11.88;;;4.20;99.90;;;;;;4999927;28;20033;-73
2021/03/08 09:13:11;;;;;;;20.05;11.82;;;4.40;99.90;;;;;;4998967;28;20392;-73
2021/03/08 09:15:36;;;;;;;24.55;12.82;;;4.50;99.90;;;;;;4996570;28;20541;-72
2021/03/08 09:18:06;;;;;;;19.38;12.63;;;4.50;99.90;;;;;;5002989;28;20041;-73
2021/03/08 09:20:32;;;;;;;19.05;11.65;;;4.60;99.60;;;;;;5001472;28;20045;-72
2021/03/08 09:23:04;;;;;;;18.85;11.57;;;4.70;99.70;;;;;;4996144;28;20427;-72
2021/03/08 09:25:30;;;;;;;22.83;12.68;;;4.60;99.10;;;;;;5000106;28;20503;-72
2021/03/08 09:27:59;;;;;;;22.30;12.40;;;4.70;99.20;;;;;;4994474;28;20030;-73
2021/03/08 09:30:37;;;;;;;22.25;12.63;;;4.80;99.80;;;;;;5000658;28;20037;-72
2021/03/08 09:33:06;;;;;;;17.13;9.95;;;4.90;98.90;;;;;;4996963;28;20030;-73
2021/03/08 09:35:36;;;;;;;21.02;10.82;;;4.90;98.60;;;;;;5001694;28;20073;-72
2021/03/08 09:38:06;;;;;;;17.70;11.57;;;5.10;99.30;;;;;;4995948;28;20064;-73
2021/03/08 09:40:35;;;;;;;20.20;11.60;;;5.10;98.30;;;;;;4996654;28;20109;-72
2021/03/08 09:43:01;;;;;;;20.27;10.77;;;5.10;97.70;;;;;;5004941;28;20029;-72
2021/03/08 09:45:36;;;;;;;26.60;11.13;;;5.20;98.00;;;;;;5006202;28;20040;-72
2021/03/08 09:48:04;;;;;;;21.30;10.63;;;5.30;98.20;;;;;;5000574;28;20034;-72
2021/03/08 09:50:35;;;;;;;18.50;10.32;;;5.50;98.20;;;;;;4997118;28;20034;-73
2021/03/08 09:53:01;;;;;;;18.95;10.60;;;5.60;97.50;;;;;;4996550;28;20656;-71
2021/03/08 09:55:30;;;;;;;20.83;10.95;;;5.80;97.80;;;;;;4998445;28;20034;-72
2021/03/08 09:57:56;;;;;;;18.23;11.07;;;5.80;97.50;;;;;;4996498;28;20044;-72
2021/03/08 10:00:28;;;;;;;17.55;10.27;;;5.90;96.70;;;;;;4996668;28;20029;-72
2021/03/08 10:03:05;;;;;;;17.73;10.85;;;5.90;96.30;;;;;;4996100;28;20472;-72
2021/03/08 10:05:40;;;;;;;19.40;10.82;;;5.90;96.50;;;;;;5005226;28;20063;-72
2021/03/08 10:08:05;;;;;;;26.60;13.50;;;6.10;96.80;;;;;;4996824;28;20049;-72
2021/03/08 10:10:37;;;;;;;17.63;9.93;;;6.20;96.10;;;;;;4996584;28;20072;-72
2021/03/08 10:13:03;;;;;;;25.52;9.55;;;6.20;95.70;;;;;;4996712;28;20033;-73
2021/03/08 10:15:58;;;;;;;15.10;9.85;;;6.30;95.50;;;;;;4995689;28;20128;-73
2021/03/08 10:18:25;;;;;;;19.95;11.73;;;6.50;95.30;;;;;;5004766;28;20603;-72
2021/03/08 10:20:51;;;;;;;18.42;10.48;;;6.60;95.60;;;;;;5002098;28;20041;-72
2021/03/08 10:23:28;;;;;;;17.33;10.30;;;6.80;94.90;;;;;;4996925;28;20172;-72
2021/03/08 10:26:13;;;;;;;15.95;9.75;;;6.80;94.50;;;;;;4995739;28;20506;-72
2021/03/08 10:28:40;;;;;;;19.65;9.77;;;6.80;94.80;;;;;;4995887;28;20052;-72
2021/03/08 10:31:20;;;;;;;16.35;10.02;;;7.00;94.80;;;;;;4998452;28;20073;-72
2021/03/08 10:33:49;;;;;;;19.50;9.65;;;7.00;94.40;;;;;;4996679;28;20029;-72
2021/03/08 10:36:20;;;;;;;24.45;11.35;;;7.10;94.30;;;;;;5001077;28;20053;-72
2021/03/08 10:38:56;;;;;;;17.55;10.52;;;7.10;94.00;;;;;;4999808;28;20033;-73
2021/03/08 10:41:25;;;;;;;19.08;10.18;;;7.30;94.00;;;;;;4999062;28;20048;-72
2021/03/08 10:43:51;;;;;;;16.08;9.00;;;7.30;93.80;;;;;;5003679;28;20022;-73
2021/03/08 10:46:17;;;;;;;16.65;9.80;;;7.40;94.00;;;;;;4998203;28;20042;-73
2021/03/08 10:49:10;;;;;;;17.00;10.75;;;7.80;94.30;;;;;;5007556;28;20435;-73
2021/03/08 10:51:37;;;;;;;19.60;11.68;;;8.10;93.60;;;;;;4997605;28;20048;-73
2021/03/08 10:54:05;;;;;;;18.35;10.73;;;8.00;93.50;;;;;;4999319;28;20039;-73
2021/03/08 10:56:33;;;;;;;21.90;14.82;;;8.10;93.70;;;;;;4999159;28;20669;-73
2021/03/08 10:59:00;;;;;;;16.13;9.85;;;8.10;92.80;;;;;;5001469;28;20044;-72
2021/03/08 11:01:27;;;;;;;15.15;10.10;;;8.20;92.50;;;;;;5000715;28;20115;-73
2021/03/08 11:03:53;;;;;;;15.70;9.20;;;8.30;92.90;;;;;;4998573;28;20129;-73
2021/03/08 11:06:21;;;;;;;18.48;11.05;;;8.70;92.60;;;;;;4998157;28;20105;-73
2021/03/08 11:08:58;;;;;;;16.88;9.05;;;8.70;92.20;;;;;;5005467;28;20040;-72
2021/03/08 11:11:30;;;;;;;24.58;10.68;;;8.70;91.80;;;;;;5000896;28;20120;-73
2021/03/08 11:14:06;;;;;;;16.27;8.95;;;8.80;92.30;;;;;;4998943;28;20120;-73
2021/03/08 11:16:33;;;;;;;16.45;9.35;;;8.90;91.70;;;;;;5005254;28;20113;-74
2021/03/08 11:19:15;;;;;;;15.30;9.27;;;9.10;91.30;;;;;;5011465;28;20026;-73
2021/03/08 11:21:41;;;;;;;15.32;8.98;;;9.20;90.60;;;;;;4997903;28;20048;-72
2021/03/08 11:24:21;;;;;;;14.48;8.85;;;9.20;90.10;;;;;;4997822;28;20052;-73
2021/03/08 11:27:06;;;;;;;15.50;9.60;;;9.40;90.20;;;;;;4999758;28;20034;-73
2021/03/08 11:29:31;;;;;;;14.95;9.93;;;9.40;90.00;;;;;;5005324;28;20025;-72
2021/03/08 11:31:57;;;;;;;17.27;9.27;;;9.60;90.30;;;;;;5001984;28;20037;-73
2021/03/08 11:34:55;;;;;;;17.95;9.23;;;9.70;90.90;;;;;;4997004;28;20088;-72
2021/03/08 11:37:23;;;;;;;12.93;8.18;;;9.60;89.90;;;;;;4989874;28;20049;-73
2021/03/08 11:39:54;;;;;;;15.30;8.15;;;9.70;89.20;;;;;;4999218;28;20045;-73
2021/03/08 11:42:21;;;;;;;13.85;8.75;;;10.00;87.50;;;;;;5002778;28;20048;-73
2021/03/08 11:44:48;;;;;;;14.02;7.95;;;9.90;86.80;;;;;;5001743;28;20029;-73
2021/03/08 11:47:14;;;;;;;15.10;8.50;;;10.10;87.50;;;;;;5001842;28;20098;-73
2021/03/08 11:49:41;;;;;;;14.52;9.05;;;10.30;87.30;;;;;;5001266;28;20038;-73
2021/03/08 11:52:07;;;;;;;16.70;7.90;;;10.00;84.50;;;;;;4997352;28;20025;-73
2021/03/08 11:54:34;;;;;;;25.85;10.18;;;9.90;86.50;;;;;;4997458;28;22711;-73
2021/03/08 11:57:01;;;;;;;19.08;8.25;;;10.20;85.70;;;;;;4998661;28;20033;-72
2021/03/08 11:59:28;;;;;;;17.55;9.55;;;10.30;86.90;;;;;;5004364;28;20103;-72
2021/03/08 12:01:54;;;;;;;17.30;9.80;;;10.50;87.40;;;;;;5000773;28;20022;-73
2021/03/08 12:04:20;;;;;;;17.88;9.02;;;10.80;85.10;;;;;;5003300;28;20037;-73
2021/03/08 12:06:46;;;;;;;17.13;9.23;;;10.70;88.20;;;;;;5005551;28;20037;-73
2021/03/08 12:09:11;;;;;;;22.42;11.20;;;11.00;85.90;;;;;;5007213;28;20038;-73
2021/03/08 12:11:37;;;;;;;17.77;9.95;;;10.90;86.60;;;;;;5006385;28;20065;-74
2021/03/08 12:14:03;;;;;;;16.40;10.38;;;10.80;85.60;;;;;;5020387;28;20427;-74
2021/03/08 12:16:29;;;;;;;17.75;10.55;;;11.00;86.30;;;;;;5005675;28;20021;-73
2021/03/08 12:18:54;;;;;;;21.27;10.50;;;10.90;85.30;;;;;;5006123;28;20041;-73
2021/03/08 12:21:21;;;;;;;16.35;9.85;;;11.10;84.70;;;;;;4998432;28;20038;-73
2021/03/08 12:23:48;;;;;;;14.82;8.93;;;11.10;83.40;;;;;;4998539;28;20423;-73
2021/03/08 12:26:14;;;;;;;21.98;9.85;;;11.30;83.40;;;;;;4997205;28;20189;-74
2021/03/08 12:28:41;;;;;;;16.15;9.95;;;11.20;82.60;;;;;;4999339;28;20518;-74
2021/03/08 12:31:07;;;;;;;14.43;9.38;;;11.30;83.10;;;;;;5000150;28;20120;-74
2021/03/08 12:33:33;;;;;;;17.38;9.13;;;11.50;82.40;;;;;;4998154;28;20033;-73
2021/03/08 12:36:00;;;;;;;14.35;9.18;;;11.50;81.30;;;;;;4995938;28;20103;-73
2021/03/08 12:38:26;;;;;;;14.57;8.18;;;11.70;81.70;;;;;;5009448;28;21061;-73
2021/03/08 12:40:52;;;;;;;15.00;8.45;;;11.50;79.40;;;;;;5003572;28;20045;-73
2021/03/08 12:43:18;;;;;;;15.27;8.93;;;11.60;80.40;;;;;;4997494;28;20034;-73
2021/03/08 12:45:44;;;;;;;13.90;7.68;;;11.60;80.40;;;;;;4998691;28;21411;-73
2021/03/08 12:48:10;;;;;;;17.10;8.18;;;11.80;79.10;;;;;;4996678;28;20132;-73
2021/03/08 12:50:36;;;;;;;15.27;8.52;;;12.10;80.20;;;;;;4997096;28;20033;-73
2021/03/08 12:53:02;;;;;;;16.30;10.50;;;12.00;80.00;;;;;;4998499;28;20037;-73